createdAt,value
2019-02-20T00:00:26.608Z,59.23
2019-02-20T00:03:30.172Z,58.33
2019-02-20T00:06:33.726Z,54.03
2019-02-20T00:09:37.296Z,52.67
2019-02-20T00:12:41.040Z,53.70
2019-02-20T00:15:44.855Z,52.47
2019-02-20T00:18:48.673Z,52.00
2019-02-20T00:21:52.230Z,52.60
2019-02-20T00:24:56.090Z,47.23
2019-02-20T00:27:59.658Z,47.70
2019-02-20T00:31:03.222Z,52.40
2019-02-20T00:34:08.301Z,48.17
2019-02-20T00:37:12.295Z,46.77
2019-02-20T00:40:16.703Z,41.83
2019-02-20T00:43:20.257Z,40.37
2019-02-20T00:46:30.556Z,42.37
2019-02-20T00:49:37.996Z,42.27
2019-02-20T00:52:55.589Z,42.50
2019-02-20T00:55:59.151Z,39.77
2019-02-20T00:59:02.709Z,40.40
2019-02-20T01:02:06.264Z,38.67
2019-02-20T01:05:09.822Z,39.23
2019-02-20T01:08:13.555Z,34.80
2019-02-20T01:11:19.269Z,36.53
2019-02-20T01:14:22.675Z,36.50
2019-02-20T01:17:26.227Z,36.27
2019-02-20T01:20:30.130Z,34.63
2019-02-20T01:23:33.684Z,34.20
2019-02-20T01:26:37.243Z,32.73
2019-02-20T01:29:41.090Z,32.60
2019-02-20T01:32:44.636Z,31.80
2019-02-20T01:35:48.201Z,32.17
2019-02-20T01:38:51.745Z,27.33
2019-02-20T01:41:55.639Z,30.33
2019-02-20T01:44:59.204Z,29.50
2019-02-20T01:48:02.905Z,30.20
2019-02-20T01:51:06.728Z,26.63
2019-02-20T01:54:10.564Z,27.73
2019-02-20T01:57:14.123Z,28.57
2019-02-20T02:00:17.688Z,26.17
2019-02-20T02:03:21.513Z,30.17
2019-02-20T02:06:25.112Z,25.00
2019-02-20T02:09:28.662Z,27.53
2019-02-20T02:12:32.294Z,26.50
2019-02-20T02:15:35.855Z,25.67
2019-02-20T02:18:39.412Z,24.60
2019-02-20T02:21:42.971Z,25.03
2019-02-20T02:24:46.808Z,22.53
2019-02-20T02:27:50.918Z,23.30
2019-02-20T02:30:54.688Z,23.70
2019-02-20T02:33:58.487Z,22.50
2019-02-20T02:37:02.269Z,21.70
2019-02-20T02:40:06.205Z,24.13
2019-02-20T02:43:09.754Z,22.93
2019-02-20T02:46:13.297Z,21.00
2019-02-20T02:49:17.470Z,21.67
2019-02-20T02:52:21.008Z,19.60
2019-02-20T02:55:24.580Z,22.00
2019-02-20T02:58:28.418Z,23.50
2019-02-20T03:01:31.947Z,23.37
2019-02-20T03:04:36.146Z,20.27
2019-02-20T03:07:39.684Z,19.40
2019-02-20T03:10:43.243Z,22.27
2019-02-20T03:13:46.775Z,21.83
2019-02-20T03:16:50.320Z,17.23
2019-02-20T03:19:53.871Z,17.43
2019-02-20T03:22:58.011Z,20.10
2019-02-20T03:26:01.549Z,18.07
2019-02-20T03:29:05.428Z,18.97
2019-02-20T03:32:09.289Z,19.23
2019-02-20T03:35:13.138Z,19.60
2019-02-20T03:38:16.947Z,16.87
2019-02-20T03:41:20.498Z,18.70
2019-02-20T03:44:24.302Z,17.67
2019-02-20T03:47:27.855Z,15.17
2019-02-20T03:50:31.689Z,15.57
2019-02-20T03:53:35.225Z,16.73
2019-02-20T03:56:39.090Z,14.90
2019-02-20T03:59:42.634Z,14.67
2019-02-20T04:02:46.177Z,16.50
2019-02-20T04:05:49.728Z,16.40
2019-02-20T04:08:53.533Z,16.20
2019-02-20T04:11:57.070Z,13.57
2019-02-20T04:15:00.602Z,16.00
2019-02-20T04:18:04.146Z,13.60
2019-02-20T04:21:07.925Z,16.70
2019-02-20T04:24:11.475Z,14.67
2019-02-20T04:27:15.274Z,15.63
2019-02-20T04:30:18.814Z,14.60
2019-02-20T04:33:22.372Z,13.27
2019-02-20T04:36:26.249Z,13.87
2019-02-20T04:39:30.068Z,14.00
2019-02-20T04:42:33.873Z,13.80
2019-02-20T04:45:37.407Z,16.40
2019-02-20T04:48:41.481Z,14.27
2019-02-20T04:51:45.016Z,13.07
2019-02-20T04:54:48.562Z,14.33
2019-02-20T04:58:21.231Z,12.87
2019-02-20T05:01:24.766Z,14.13
2019-02-20T05:04:28.320Z,12.97
2019-02-20T05:07:32.136Z,15.70
2019-02-20T05:10:35.672Z,14.23
2019-02-20T05:13:39.257Z,12.20
2019-02-20T05:16:42.855Z,12.93
2019-02-20T05:19:46.662Z,15.63
2019-02-20T05:22:50.212Z,17.33
2019-02-20T05:25:53.738Z,24.07
2019-02-20T05:28:57.285Z,32.97
2019-02-20T05:32:00.921Z,32.87
2019-02-20T05:35:04.595Z,27.60
2019-02-20T05:38:08.151Z,27.97
2019-02-20T05:41:11.707Z,19.70
2019-02-20T05:44:15.278Z,21.37
2019-02-20T05:47:19.534Z,22.23
2019-02-20T05:50:23.111Z,265.33
2019-02-20T05:53:26.679Z,147.63
2019-02-20T05:56:30.224Z,470.80
2019-02-20T05:59:33.777Z,137.23
2019-02-20T06:02:37.322Z,128.83
2019-02-20T06:05:40.890Z,112.83
2019-02-20T06:08:44.689Z,87.40
2019-02-20T06:11:48.233Z,94.40
2019-02-20T06:14:51.778Z,94.00
2019-02-20T06:17:55.335Z,95.07
2019-02-20T06:20:59.233Z,85.40
2019-02-20T06:24:03.046Z,87.03
2019-02-20T06:27:07.929Z,83.00
2019-02-20T06:30:11.789Z,79.40
2019-02-20T06:33:15.319Z,73.97
2019-02-20T06:36:18.871Z,71.33
2019-02-20T06:39:22.505Z,74.10
2019-02-20T06:42:26.047Z,70.33
2019-02-20T06:45:30.371Z,69.33
2019-02-20T06:48:33.933Z,65.23
2019-02-20T06:51:37.559Z,65.50
2019-02-20T06:54:41.110Z,58.83
2019-02-20T06:57:44.905Z,58.40
2019-02-20T07:00:48.450Z,58.03
2019-02-20T07:03:52.531Z,57.53
2019-02-20T07:07:11.865Z,58.03
2019-02-20T07:10:48.441Z,61.60
2019-02-20T07:13:58.618Z,52.23
2019-02-20T07:17:38.634Z,50.60
2019-02-20T07:21:25.336Z,52.87
2019-02-20T07:24:37.513Z,49.67
2019-02-20T07:28:07.367Z,47.37
2019-02-20T07:31:10.913Z,47.77
2019-02-20T07:34:14.453Z,45.93
2019-02-20T07:37:18.001Z,47.20
2019-02-20T07:40:21.802Z,45.60
2019-02-20T07:43:25.659Z,43.90
2019-02-20T07:46:29.878Z,41.53
2019-02-20T07:49:33.430Z,44.43
2019-02-20T07:52:37.042Z,41.73
2019-02-20T07:55:40.600Z,39.70
2019-02-20T07:58:44.141Z,41.83
2019-02-20T08:01:47.689Z,38.77
2019-02-20T08:04:51.228Z,39.87
2019-02-20T08:07:55.059Z,39.90
2019-02-20T08:10:58.872Z,34.37
2019-02-20T08:14:02.419Z,36.77
2019-02-20T08:17:06.040Z,35.70
2019-02-20T08:20:11.055Z,35.97
2019-02-20T08:23:14.881Z,36.20
2019-02-20T08:26:18.430Z,35.30
2019-02-20T08:29:21.976Z,33.10
2019-02-20T08:32:26.100Z,32.90
2019-02-20T08:35:29.647Z,34.80
2019-02-20T08:38:33.839Z,32.87
2019-02-20T08:41:37.394Z,33.47
2019-02-20T08:44:41.581Z,28.80
2019-02-20T08:47:45.121Z,30.17
2019-02-20T08:50:48.694Z,32.07
2019-02-20T08:53:52.514Z,26.30
2019-02-20T08:56:56.285Z,29.50
2019-02-20T08:59:59.824Z,29.37
2019-02-20T09:03:03.428Z,32.03
2019-02-20T09:06:06.968Z,27.73
2019-02-20T09:09:10.841Z,26.07
2019-02-20T09:12:14.695Z,28.07
2019-02-20T09:15:18.248Z,26.90
2019-02-20T09:18:21.792Z,24.37
2019-02-20T09:21:25.905Z,25.30
2019-02-20T09:24:29.719Z,26.27
2019-02-20T09:27:33.275Z,22.80
2019-02-20T09:30:36.830Z,24.83
2019-02-20T09:33:40.369Z,24.63
2019-02-20T09:36:43.901Z,23.17
2019-02-20T09:39:47.506Z,24.80
2019-02-20T09:42:51.088Z,27.27
2019-02-20T09:45:54.948Z,25.97
2019-02-20T09:48:58.580Z,26.83
2019-02-20T09:52:02.404Z,23.47
2019-02-20T09:55:06.248Z,21.33
2019-02-20T09:58:10.084Z,23.13
2019-02-20T10:01:13.899Z,20.07
2019-02-20T10:04:17.708Z,22.53
2019-02-20T10:07:21.508Z,20.57
2019-02-20T10:10:25.054Z,22.63
2019-02-20T10:13:28.611Z,19.63
2019-02-20T10:16:32.150Z,21.97
2019-02-20T10:19:36.040Z,19.30
2019-02-20T10:22:39.578Z,23.27
2019-02-20T10:25:43.471Z,19.03
2019-02-20T10:28:47.306Z,19.87
2019-02-20T10:31:50.836Z,17.47
2019-02-20T10:34:54.387Z,17.40
2019-02-20T10:37:58.267Z,16.73
2019-02-20T10:41:02.088Z,19.03
2019-02-20T10:44:05.637Z,17.37
2019-02-20T10:47:09.169Z,17.03
2019-02-20T10:50:12.808Z,15.83
2019-02-20T10:53:16.346Z,17.63
2019-02-20T10:56:19.887Z,17.33
2019-02-20T10:59:23.447Z,16.47
2019-02-20T11:02:26.994Z,17.27
2019-02-20T11:05:30.548Z,15.27
2019-02-20T11:08:34.082Z,17.27
2019-02-20T11:11:37.632Z,17.10
2019-02-20T11:14:41.464Z,14.77
2019-02-20T11:17:45.002Z,15.23
2019-02-20T11:20:48.864Z,14.97
2019-02-20T11:23:52.386Z,16.87
2019-02-20T11:26:55.931Z,15.20
2019-02-20T11:29:59.755Z,15.13
2019-02-20T11:33:03.510Z,13.07
2019-02-20T11:36:07.302Z,14.57
2019-02-20T11:39:11.753Z,15.67
2019-02-20T11:42:15.423Z,14.20
2019-02-20T11:45:19.038Z,13.87
2019-02-20T11:48:22.913Z,14.73
2019-02-20T11:51:26.466Z,13.23
2019-02-20T11:54:30.074Z,13.93
2019-02-20T11:57:33.685Z,13.23
2019-02-20T12:00:37.903Z,14.87
2019-02-20T12:03:41.697Z,14.43
2019-02-20T12:06:45.236Z,15.33
2019-02-20T12:09:49.171Z,16.33
2019-02-20T12:12:52.719Z,12.77
2019-02-20T12:15:56.276Z,12.97
2019-02-20T12:19:00.075Z,12.17
2019-02-20T12:22:03.629Z,12.03
2019-02-20T12:25:07.367Z,12.20
2019-02-20T12:28:10.906Z,13.37
2019-02-20T12:31:14.451Z,11.73
2019-02-20T12:34:18.328Z,11.47
2019-02-20T12:37:21.884Z,12.67
2019-02-20T12:40:25.432Z,10.23
2019-02-20T12:43:28.984Z,13.33
2019-02-20T12:46:32.531Z,12.87
2019-02-20T12:49:36.082Z,11.30
2019-02-20T12:52:40.049Z,11.17
2019-02-20T12:55:44.186Z,11.77
2019-02-20T12:58:47.980Z,10.33
2019-02-20T13:01:52.207Z,13.13
2019-02-20T13:04:56.034Z,11.07
2019-02-20T13:07:59.847Z,11.00
2019-02-20T13:11:03.390Z,11.63
2019-02-20T13:14:07.222Z,10.10
2019-02-20T13:17:10.774Z,11.00
2019-02-20T13:20:14.316Z,10.17
2019-02-20T13:23:17.857Z,10.13
2019-02-20T13:26:21.932Z,12.80
2019-02-20T13:29:25.748Z,12.70
2019-02-20T13:32:29.304Z,10.27
2019-02-20T13:35:32.922Z,10.03
2019-02-20T13:38:36.765Z,10.30
2019-02-20T13:41:40.975Z,11.90
2019-02-20T13:44:44.515Z,9.37
2019-02-20T13:47:48.709Z,10.73
2019-02-20T13:50:52.256Z,10.80
2019-02-20T13:53:55.874Z,8.33
2019-02-20T13:57:02.159Z,10.03
2019-02-20T14:00:05.717Z,9.90
2019-02-20T14:03:09.257Z,9.60
2019-02-20T14:06:15.048Z,8.53
2019-02-20T14:09:18.646Z,11.57
2019-02-20T14:12:22.207Z,9.30
2019-02-20T14:15:25.749Z,8.63
2019-02-20T14:18:29.558Z,8.63
2019-02-20T14:21:33.110Z,11.07
2019-02-20T14:24:36.668Z,11.20
2019-02-20T14:27:40.525Z,10.47
2019-02-20T14:30:44.067Z,10.27
2019-02-20T14:33:47.887Z,9.63
2019-02-20T14:36:51.416Z,9.57
2019-02-20T14:39:55.236Z,11.03
2019-02-20T14:42:59.107Z,9.17
2019-02-20T14:46:02.649Z,10.20
2019-02-20T14:49:06.189Z,7.37
2019-02-20T14:52:10.068Z,8.60
2019-02-20T14:55:13.946Z,7.87
2019-02-20T14:58:17.747Z,7.20
2019-02-20T15:01:21.301Z,7.40
2019-02-20T15:04:24.850Z,7.80
2019-02-20T15:07:28.391Z,7.97
2019-02-20T15:10:32.116Z,12.23
2019-02-20T15:13:35.662Z,7.23
2019-02-20T15:16:39.203Z,8.33
2019-02-20T15:19:43.026Z,8.77
2019-02-20T15:22:46.563Z,9.77
2019-02-20T15:25:50.431Z,8.30
2019-02-20T15:28:54.806Z,8.33
2019-02-20T15:31:58.659Z,9.03
2019-02-20T15:35:02.208Z,7.90
2019-02-20T15:38:06.039Z,7.97
2019-02-20T15:41:09.846Z,10.40
2019-02-20T15:44:13.396Z,7.00
2019-02-20T15:47:17.555Z,10.00
2019-02-20T15:50:21.128Z,20.77
2019-02-20T15:53:24.682Z,26.93
2019-02-20T15:56:28.238Z,21.13
2019-02-20T15:59:31.795Z,18.07
2019-02-20T16:02:35.629Z,16.80
2019-02-20T16:05:39.247Z,17.23
2019-02-20T16:08:42.788Z,25.67
2019-02-20T16:11:46.345Z,179.07
2019-02-20T16:14:49.909Z,172.67
2019-02-20T16:17:53.467Z,331.63
2019-02-20T16:20:57.042Z,193.03
2019-02-20T16:24:00.676Z,162.47
2019-02-20T16:27:04.531Z,124.57
2019-02-20T16:30:09.412Z,126.63
2019-02-20T16:33:13.204Z,113.13
2019-02-20T16:36:16.769Z,112.33
2019-02-20T16:39:20.325Z,108.83
2019-02-20T16:42:23.877Z,100.97
2019-02-20T16:45:27.507Z,100.23
2019-02-20T16:48:31.252Z,96.10
2019-02-20T16:51:34.824Z,103.17
2019-02-20T16:54:38.384Z,92.93
2019-02-20T16:57:42.314Z,94.70
2019-02-20T17:00:45.864Z,92.37
2019-02-20T17:03:49.416Z,91.53
2019-02-20T17:06:53.350Z,78.90
2019-02-20T17:09:56.904Z,83.17
2019-02-20T17:13:00.461Z,82.20
2019-02-20T17:16:04.451Z,79.67
2019-02-20T17:19:07.995Z,74.13
2019-02-20T17:22:11.616Z,77.50
2019-02-20T17:25:15.354Z,74.70
2019-02-20T17:28:18.893Z,70.67
2019-02-20T17:31:22.452Z,67.30
2019-02-20T17:34:26.084Z,70.60
2019-02-20T17:37:29.980Z,67.60
2019-02-20T17:40:33.535Z,64.90
2019-02-20T17:43:37.086Z,67.57
2019-02-20T17:46:40.646Z,62.90
2019-02-20T17:49:44.200Z,60.47
2019-02-20T17:52:48.026Z,58.00
2019-02-20T17:55:51.577Z,55.17
2019-02-20T17:58:56.449Z,53.37
2019-02-20T18:02:00.005Z,56.87
2019-02-20T18:05:03.569Z,55.93
2019-02-20T18:08:07.124Z,52.30
2019-02-20T18:11:11.068Z,53.03
2019-02-20T18:14:14.616Z,52.70
2019-02-20T18:17:18.634Z,50.80
2019-02-20T18:20:22.184Z,48.33
2019-02-20T18:23:25.739Z,46.73
2019-02-20T18:26:29.296Z,51.47
2019-02-20T18:29:32.839Z,49.17
2019-02-20T18:32:36.392Z,44.83
2019-02-20T18:35:40.195Z,44.43
2019-02-20T18:38:43.754Z,43.60
2019-02-20T18:41:47.945Z,41.17
2019-02-20T18:44:51.488Z,39.83
2019-02-20T18:47:55.562Z,37.27
2019-02-20T18:50:59.374Z,41.60
2019-02-20T18:54:02.964Z,40.03
2019-02-20T18:57:06.766Z,36.57
2019-02-20T19:00:13.388Z,39.03
2019-02-20T19:03:17.295Z,38.50
2019-02-20T19:06:20.828Z,36.17
2019-02-20T19:09:27.083Z,37.83
2019-02-20T19:12:58.340Z,39.10
2019-02-20T19:16:41.770Z,35.10
2019-02-20T19:20:02.096Z,33.23
2019-02-20T19:23:42.891Z,33.20
2019-02-20T19:27:15.758Z,30.77
2019-02-20T19:30:49.689Z,32.30
2019-02-20T19:34:27.794Z,31.30
2019-02-20T19:38:06.491Z,32.93
2019-02-20T19:41:52.014Z,29.80
2019-02-20T19:45:49.535Z,29.13
2019-02-20T19:49:46.249Z,29.73
2019-02-20T19:53:12.340Z,27.23
2019-02-20T19:57:06.411Z,27.07
2019-02-20T20:00:25.093Z,26.53
2019-02-20T20:03:43.280Z,24.67
2019-02-20T20:06:58.600Z,27.30
2019-02-20T20:10:15.423Z,25.10
2019-02-20T20:13:30.673Z,26.10
2019-02-20T20:17:09.298Z,25.40
2019-02-20T20:20:19.191Z,25.43
2019-02-20T20:23:58.212Z,22.57
2019-02-20T20:27:54.083Z,22.33
2019-02-20T20:31:35.920Z,24.10
2019-02-20T20:34:58.499Z,21.90
2019-02-20T20:38:31.869Z,21.30
2019-02-20T20:41:49.712Z,23.17
2019-02-20T20:45:07.307Z,22.40
2019-02-20T20:48:33.483Z,21.90
2019-02-20T20:52:01.657Z,19.70
2019-02-20T20:55:44.800Z,20.17
2019-02-20T20:59:18.098Z,20.53
2019-02-20T21:02:28.965Z,19.53
2019-02-20T21:06:04.421Z,19.20
2019-02-20T21:09:23.692Z,19.47
2019-02-20T21:12:58.997Z,17.63
2019-02-20T21:16:28.907Z,16.27
2019-02-20T21:20:00.354Z,17.47
2019-02-20T21:23:33.711Z,18.23
2019-02-20T21:27:13.683Z,17.70
2019-02-20T21:31:02.497Z,17.57
2019-02-20T21:34:16.683Z,15.97
2019-02-20T21:37:42.827Z,16.10
2019-02-20T21:41:33.723Z,17.43
2019-02-20T21:45:14.806Z,16.53
2019-02-20T21:48:58.649Z,14.60
2019-02-20T21:52:33.497Z,15.20
2019-02-20T21:56:27.600Z,17.10
2019-02-20T21:59:54.309Z,14.80
2019-02-20T22:03:12.486Z,14.37
2019-02-20T22:06:29.503Z,13.77
2019-02-20T22:10:01.904Z,13.13
2019-02-20T22:13:40.490Z,15.83
2019-02-20T22:17:05.433Z,13.00
2019-02-20T22:20:18.690Z,14.10
2019-02-20T22:23:33.606Z,14.83
2019-02-20T22:26:57.323Z,13.13
2019-02-20T22:30:44.079Z,14.17
2019-02-20T22:34:34.076Z,13.23
2019-02-20T22:38:21.580Z,12.53
2019-02-20T22:41:57.692Z,14.03
2019-02-20T22:46:00.789Z,16.07
2019-02-20T22:49:39.989Z,13.67
2019-02-20T22:53:08.124Z,14.93
2019-02-20T22:56:58.256Z,12.97
2019-02-20T23:00:52.290Z,156.17
2019-02-20T23:04:26.110Z,51.73
2019-02-20T23:08:10.772Z,353.07
2019-02-20T23:11:40.199Z,142.13
2019-02-20T23:14:57.226Z,107.20
2019-02-20T23:18:01.097Z,95.13
2019-02-20T23:21:04.642Z,92.73
2019-02-20T23:24:08.190Z,82.33
2019-02-20T23:27:12.083Z,83.23
2019-02-20T23:30:15.645Z,76.60
2019-02-20T23:33:19.208Z,79.67
2019-02-20T23:36:22.761Z,74.83
2019-02-20T23:39:26.316Z,73.40
2019-02-20T23:42:29.975Z,68.53
2019-02-20T23:45:33.589Z,68.53
2019-02-20T23:48:37.138Z,64.47
2019-02-20T23:51:41.001Z,62.60
2019-02-20T23:54:44.566Z,63.13
2019-02-20T23:57:48.268Z,60.87
